Time;durP1;ratioP1;P1;durP2;ratioP2;P2;SDS_P1;SDS_P2;PMS_P1;PMS_P2;Temp;Humidity;BMP_temperature;BMP_pressure;BME280_temperature;BME280_humidity;BME280_pressure;Samples;Min_cycle;Max_cycle;Signal;HPM_P1;HPM_P2
2023/02/08 00:01:29;;;;;;;85.45;38.88;;;-2.50;99.90;;;;;;5079948;28;20035;-60
2023/02/08 00:04:15;;;;;;;88.15;37.53;;;-2.50;99.90;;;;;;5088824;28;20033;-54
2023/02/08 00:07:01;;;;;;;82.40;38.03;;;-2.60;99.90;;;;;;5064362;28;21158;-56
2023/02/08 00:09:48;;;;;;;81.03;36.85;;;-2.60;99.90;;;;;;5091272;28;20063;-59
2023/02/08 00:12:34;;;;;;;81.10;35.65;;;-2.70;99.90;;;;;;5092199;28;20028;-55
2023/02/08 00:15:20;;;;;;;80.95;37.38;;;-2.80;99.90;;;;;;5090836;28;20040;-56
2023/02/08 00:18:06;;;;;;;83.28;34.65;;;-2.90;99.90;;;;;;5091570;28;20032;-58
2023/02/08 00:20:51;;;;;;;81.22;36.03;;;-3.00;99.90;;;;;;5074474;28;20044;-57
2023/02/08 00:23:38;;;;;;;81.97;35.92;;;-3.00;99.90;;;;;;5057862;28;20040;-57
2023/02/08 00:26:24;;;;;;;84.88;36.70;;;-2.90;99.90;;;;;;5072004;28;20028;-55
2023/02/08 00:29:09;;;;;;;80.43;36.78;;;-2.90;99.90;;;;;;5072571;28;20033;-54
2023/02/08 00:31:55;;;;;;;83.50;36.95;;;-2.80;99.90;;;;;;5085222;28;20048;-58
2023/02/08 00:34:41;;;;;;;85.68;38.67;;;-2.70;99.90;;;;;;5090609;28;20107;-57
2023/02/08 00:37:27;;;;;;;83.15;38.30;;;-2.60;99.90;;;;;;5091422;28;20567;-56
2023/02/08 00:40:13;;;;;;;87.57;37.13;;;-2.60;99.90;;;;;;5082042;28;20721;-59
2023/02/08 00:42:59;;;;;;;81.90;37.22;;;-2.60;99.90;;;;;;5097634;28;20028;-57
2023/02/08 00:45:45;;;;;;;88.90;39.67;;;-2.50;99.90;;;;;;5091319;28;20024;-53
2023/02/08 00:48:32;;;;;;;79.70;36.30;;;-2.50;99.90;;;;;;5071571;28;20086;-55
2023/02/08 00:51:17;;;;;;;84.72;38.55;;;-2.40;99.90;;;;;;5081841;28;20021;-50
2023/02/08 00:54:03;;;;;;;76.00;36.58;;;-2.40;99.90;;;;;;5091067;28;20030;-52
2023/02/08 00:56:49;;;;;;;81.13;37.50;;;-2.40;99.90;;;;;;5090773;28;20076;-53
2023/02/08 00:59:35;;;;;;;77.93;34.58;;;-2.40;99.90;;;;;;5090596;28;20028;-52
2023/02/08 01:02:21;;;;;;;73.63;35.15;;;-2.50;99.90;;;;;;5091085;28;20028;-53
2023/02/08 01:05:07;;;;;;;80.50;35.67;;;-2.50;99.90;;;;;;5091608;28;20046;-50
2023/02/08 01:07:53;;;;;;;73.60;34.42;;;-2.50;99.90;;;;;;5091618;28;20056;-54
2023/02/08 01:10:39;;;;;;;78.47;34.75;;;-2.50;99.90;;;;;;5091637;28;20035;-49
2023/02/08 01:13:25;;;;;;;90.15;36.13;;;-2.50;99.90;;;;;;5091764;28;20035;-51
2023/02/08 01:16:20;;;;;;;86.40;39.25;;;-2.50;99.90;;;;;;5090410;28;20036;-52
2023/02/08 01:19:06;;;;;;;;;;;-2.60;99.90;;;;;;5077360;28;20101;-53
2023/02/08 01:21:52;;;;;;;76.65;34.60;;;-2.60;99.90;;;;;;5091361;28;20428;-55
2023/02/08 01:24:38;;;;;;;85.75;35.67;;;-2.50;99.90;;;;;;5085224;28;20108;-56
2023/02/08 01:27:24;;;;;;;84.57;37.05;;;-2.50;99.90;;;;;;5111451;28;20043;-57
2023/02/08 01:30:11;;;;;;;85.40;36.78;;;-2.60;99.90;;;;;;5096893;28;20035;-58
2023/02/08 01:32:57;;;;;;;78.10;35.40;;;-2.60;99.90;;;;;;5081104;28;20427;-55
2023/02/08 01:35:43;;;;;;;76.60;34.45;;;-2.70;99.90;;;;;;5102373;28;20051;-54
2023/02/08 01:38:29;;;;;;;71.40;32.83;;;-2.80;99.90;;;;;;5090867;28;20118;-55
2023/02/08 01:41:22;;;;;;;69.50;32.45;;;-2.90;99.90;;;;;;5090478;28;20035;-53
2023/02/08 01:44:12;;;;;;;75.72;33.10;;;-3.00;99.90;;;;;;5090112;28;20083;-51
2023/02/08 01:46:58;;;;;;;71.47;33.08;;;-3.10;99.90;;;;;;5089655;28;20115;-52
2023/02/08 01:49:44;;;;;;;75.80;35.30;;;-3.20;99.90;;;;;;5089391;28;20059;-53
2023/02/08 01:52:30;;;;;;;79.05;33.70;;;-3.40;99.90;;;;;;5090786;28;20031;-51
2023/02/08 01:55:31;;;;;;;72.00;33.75;;;-3.50;99.90;;;;;;5059449;28;20058;-51
2023/02/08 01:58:19;;;;;;;73.13;33.05;;;-3.40;99.90;;;;;;5074499;28;20058;-54
2023/02/08 02:01:06;;;;;;;73.93;33.53;;;-3.30;99.90;;;;;;5090069;28;20427;-54
2023/02/08 02:03:52;;;;;;;75.68;35.47;;;-3.20;99.90;;;;;;5081219;28;20066;-56
2023/02/08 02:06:48;;;;;;;68.53;33.60;;;-3.20;99.90;;;;;;5071230;28;20044;-52
2023/02/08 02:09:51;;;;;;;74.50;35.05;;;-3.20;99.90;;;;;;5084329;28;20520;-53
2023/02/08 02:12:41;;;;;;;76.68;33.90;;;-3.10;99.90;;;;;;5090826;28;20031;-53
2023/02/08 02:15:27;;;;;;;73.63;35.88;;;-3.10;99.90;;;;;;5069228;28;20035;-50
2023/02/08 02:18:34;;;;;;;71.43;33.97;;;-3.00;99.90;;;;;;5071613;28;20048;-51
2023/02/08 02:21:41;;;;;;;69.68;33.05;;;-3.00;99.90;;;;;;5076011;28;20545;-51
2023/02/08 02:24:48;;;;;;;63.03;30.92;;;-3.00;99.90;;;;;;5090410;28;20068;-50
2023/02/08 02:27:39;;;;;;;64.07;32.10;;;-3.00;99.90;;;;;;5090191;28;20047;-51
2023/02/08 02:31:06;;;;;;;72.88;34.13;;;-3.00;99.90;;;;;;5088458;28;20488;-53
2023/02/08 02:34:14;;;;;;;65.78;34.42;;;-3.00;99.90;;;;;;5070105;28;20063;-50
2023/02/08 02:37:02;;;;;;;69.38;32.88;;;-3.00;99.90;;;;;;5062838;28;20111;-53
2023/02/08 02:40:07;;;;;;;72.95;33.95;;;-3.00;99.90;;;;;;5089244;28;20028;-50
2023/02/08 02:46:51;;;;;;;73.85;35.55;;;-3.10;99.90;;;;;;5072429;28;20508;-53
2023/02/08 02:49:53;;;;;;;87.72;37.90;;;-3.20;99.90;;;;;;5089561;28;20569;-54
2023/02/08 02:52:50;;;;;;;83.13;39.08;;;-3.20;99.90;;;;;;5075443;28;20029;-55
2023/02/08 02:55:42;;;;;;;83.95;38.08;;;-3.20;99.90;;;;;;5070532;28;20165;-54
2023/02/08 02:58:31;;;;;;;83.32;39.15;;;-3.10;99.90;;;;;;5070940;28;20055;-53
2023/02/08 03:01:24;;;;;;;82.05;37.58;;;-3.00;99.90;;;;;;5069351;28;20496;-52
2023/02/08 03:04:32;;;;;;;84.35;40.22;;;-2.80;99.90;;;;;;5072429;28;20111;-55
2023/02/08 03:07:49;;;;;;;87.97;41.40;;;-2.90;99.90;;;;;;5059795;28;20032;-55
2023/02/08 03:10:55;;;;;;;88.32;39.15;;;-2.90;99.90;;;;;;5074809;28;20497;-53
2023/02/08 03:14:00;;;;;;;83.80;38.10;;;-2.90;99.90;;;;;;5074926;28;20411;-54
2023/02/08 03:17:04;;;;;;;99.53;45.10;;;-2.90;99.90;;;;;;5075351;28;20043;-55
2023/02/08 03:20:02;;;;;;;88.10;40.38;;;-2.90;99.90;;;;;;5079290;28;20043;-53
2023/02/08 03:23:18;;;;;;;88.60;39.20;;;-2.90;99.90;;;;;;5084208;28;20028;-53
2023/02/08 03:26:15;;;;;;;82.50;38.28;;;-2.90;99.90;;;;;;5092625;28;20026;-55
2023/02/08 03:29:38;;;;;;;86.75;39.13;;;-2.80;99.90;;;;;;5073774;28;20033;-50
2023/02/08 03:32:46;;;;;;;77.45;36.58;;;-2.90;99.90;;;;;;5073350;28;20021;-53
2023/02/08 03:35:47;;;;;;;80.85;36.70;;;-2.90;99.90;;;;;;5072694;28;20048;-54
2023/02/08 03:38:40;;;;;;;79.22;37.92;;;-2.90;99.90;;;;;;5074082;28;20103;-53
2023/02/08 03:41:32;;;;;;;80.80;37.85;;;-2.90;99.90;;;;;;5089710;28;20066;-56
2023/02/08 03:44:28;;;;;;;83.97;40.28;;;-2.90;99.90;;;;;;5092720;28;20025;-54
2023/02/08 03:47:26;;;;;;;88.47;42.65;;;-3.00;99.90;;;;;;5072446;28;20032;-51
2023/02/08 03:50:16;;;;;;;84.55;38.28;;;-3.00;99.90;;;;;;5073120;28;20443;-53
2023/02/08 03:53:04;;;;;;;85.10;39.88;;;-3.00;99.90;;;;;;5072213;28;20101;-51
2023/02/08 03:55:57;;;;;;;85.47;41.42;;;-3.00;99.90;;;;;;5080957;28;20107;-52
2023/02/08 03:58:51;;;;;;;86.72;39.95;;;-3.00;99.90;;;;;;5092159;28;20059;-52
2023/02/08 04:01:58;;;;;;;85.88;40.40;;;-3.00;99.90;;;;;;5075878;28;20116;-54
2023/02/08 04:04:47;;;;;;;80.85;39.45;;;-3.00;99.90;;;;;;5073341;28;20074;-54
2023/02/08 04:07:33;;;;;;;79.60;37.55;;;-3.00;99.90;;;;;;5073315;28;20056;-55
2023/02/08 04:10:20;;;;;;;76.07;38.58;;;-3.10;99.90;;;;;;5071633;28;20503;-52
2023/02/08 04:13:06;;;;;;;82.25;39.58;;;-3.00;99.90;;;;;;5073649;28;20032;-55
2023/02/08 04:15:51;;;;;;;71.00;36.67;;;-3.00;99.90;;;;;;5077417;28;20032;-53
2023/02/08 04:18:37;;;;;;;80.85;38.60;;;-3.00;99.90;;;;;;5091487;28;20036;-52
2023/02/08 04:21:23;;;;;;;78.10;40.17;;;-3.10;99.90;;;;;;5079819;28;20044;-55
2023/02/08 04:24:09;;;;;;;80.32;39.40;;;-3.20;99.90;;;;;;5071730;28;20108;-52
2023/02/08 04:26:55;;;;;;;78.47;36.88;;;-3.20;99.90;;;;;;5087906;28;20028;-53
2023/02/08 04:29:41;;;;;;;79.53;37.58;;;-3.20;99.90;;;;;;5089178;28;20053;-50
2023/02/08 04:32:27;;;;;;;85.95;39.53;;;-3.20;99.90;;;;;;5073522;28;20106;-51
2023/02/08 04:35:13;;;;;;;81.97;39.83;;;-3.30;99.90;;;;;;5075063;28;20065;-54
2023/02/08 04:37:59;;;;;;;83.10;38.83;;;-3.20;99.90;;;;;;5059442;28;20059;-52
2023/02/08 04:40:45;;;;;;;85.78;37.97;;;-3.20;99.90;;;;;;5072908;28;20037;-54
2023/02/08 04:43:31;;;;;;;83.43;40.85;;;-3.10;99.90;;;;;;5087084;28;20024;-52
2023/02/08 04:46:17;;;;;;;88.88;42.42;;;-3.10;99.90;;;;;;5088349;28;20027;-54
2023/02/08 04:49:03;;;;;;;82.07;39.17;;;-3.00;99.90;;;;;;5073058;28;20024;-52
2023/02/08 04:51:49;;;;;;;88.88;39.67;;;-3.10;99.90;;;;;;5063727;28;20034;-54
2023/02/08 04:54:34;;;;;;;85.95;39.65;;;-3.00;99.90;;;;;;5091173;28;20028;-52
2023/02/08 04:57:20;;;;;;;78.55;39.30;;;-3.00;99.90;;;;;;5081839;28;20032;-53
2023/02/08 05:00:07;;;;;;;80.60;38.65;;;-3.10;99.90;;;;;;5072487;28;20037;-56
2023/02/08 05:02:53;;;;;;;84.40;37.65;;;-3.10;99.90;;;;;;5087700;28;20130;-54
2023/02/08 05:05:40;;;;;;;80.72;37.85;;;-3.10;99.90;;;;;;5076026;28;20571;-52
2023/02/08 05:08:26;;;;;;;82.85;38.17;;;-3.10;99.90;;;;;;5070730;28;20063;-55
2023/02/08 05:11:19;;;;;;;75.30;37.80;;;-3.20;99.90;;;;;;5072421;28;20063;-51
2023/02/08 05:14:04;;;;;;;80.20;40.03;;;-3.20;99.90;;;;;;5090877;28;20020;-55
2023/02/08 05:16:50;;;;;;;81.15;37.45;;;-3.20;99.90;;;;;;5083724;28;20031;-54
2023/02/08 05:19:36;;;;;;;76.03;38.22;;;-3.20;99.90;;;;;;5072061;28;20052;-55
2023/02/08 05:22:22;;;;;;;83.80;39.30;;;-3.20;99.90;;;;;;5070750;28;20079;-51
2023/02/08 05:25:08;;;;;;;81.00;40.17;;;-3.20;99.90;;;;;;5077501;28;20063;-52
2023/02/08 05:27:54;;;;;;;87.05;39.30;;;-3.10;99.90;;;;;;5089846;28;20680;-55
2023/02/08 05:30:40;;;;;;;79.00;40.80;;;-3.00;99.90;;;;;;5065337;28;20373;-55
2023/02/08 05:33:26;;;;;;;87.85;44.22;;;-3.10;99.90;;;;;;5070396;28;20025;-50
2023/02/08 05:36:12;;;;;;;82.80;38.53;;;-3.10;99.90;;;;;;5088648;28;20050;-49
2023/02/08 05:38:58;;;;;;;84.40;42.47;;;-3.10;99.90;;;;;;5090071;28;20039;-55
2023/02/08 05:41:44;;;;;;;82.10;39.30;;;-3.20;99.90;;;;;;5070869;28;20065;-53
2023/02/08 05:44:30;;;;;;;80.40;38.85;;;-3.20;99.90;;;;;;5072995;28;20081;-53
2023/02/08 05:47:16;;;;;;;83.70;40.83;;;-3.20;99.90;;;;;;5090467;28;20039;-55
2023/02/08 05:50:02;;;;;;;87.20;40.63;;;-3.30;99.90;;;;;;5082082;28;20067;-52
2023/02/08 05:52:48;;;;;;;84.88;40.83;;;-3.40;99.90;;;;;;5069958;28;20095;-55
2023/02/08 05:55:34;;;;;;;91.05;40.90;;;-3.50;99.90;;;;;;5086120;28;20066;-52
2023/02/08 05:58:20;;;;;;;88.75;40.67;;;-3.50;99.90;;;;;;5089250;28;20122;-53
2023/02/08 06:01:10;;;;;;;91.32;43.13;;;-3.40;99.90;;;;;;5078116;28;20040;-54
2023/02/08 06:03:58;;;;;;;89.65;41.30;;;-3.50;99.90;;;;;;5088085;28;20012;-55
2023/02/08 06:06:44;;;;;;;87.50;39.17;;;-3.70;99.90;;;;;;5070184;28;20016;-56
2023/02/08 06:09:30;;;;;;;90.10;42.47;;;-3.60;99.90;;;;;;5077094;28;20038;-58
2023/02/08 06:12:16;;;;;;;93.80;42.40;;;-3.50;99.90;;;;;;5090184;28;20107;-56
2023/02/08 06:15:02;;;;;;;84.88;38.95;;;-3.30;99.90;;;;;;5079671;28;20032;-56
2023/02/08 06:17:49;;;;;;;87.82;41.40;;;-3.30;99.90;;;;;;5054944;28;20032;-55
2023/02/08 06:20:35;;;;;;;84.25;41.25;;;-3.30;99.90;;;;;;5084984;28;20039;-55
2023/02/08 06:23:22;;;;;;;87.05;40.67;;;-3.40;99.90;;;;;;5075013;28;20108;-53
2023/02/08 06:26:08;;;;;;;96.10;42.53;;;-3.40;99.90;;;;;;5070633;28;20059;-52
2023/02/08 06:28:54;;;;;;;90.10;41.30;;;-3.50;99.90;;;;;;5078718;28;20081;-50
2023/02/08 06:31:40;;;;;;;92.47;42.80;;;-3.60;99.90;;;;;;5075358;28;20036;-51
2023/02/08 06:34:26;;;;;;;88.20;45.10;;;-3.50;99.90;;;;;;5077892;28;20032;-54
2023/02/08 06:37:12;;;;;;;86.93;43.85;;;-3.30;99.90;;;;;;5070781;28;20029;-55
2023/02/08 06:40:00;;;;;;;87.53;41.45;;;-3.30;99.90;;;;;;5070257;28;20060;-54
2023/02/08 06:42:48;;;;;;;83.20;40.92;;;-3.20;99.90;;;;;;5088725;28;20063;-52
2023/02/08 06:45:33;;;;;;;88.05;41.58;;;-3.20;99.90;;;;;;5089755;28;20077;-55
2023/02/08 06:48:19;;;;;;;82.95;39.22;;;-3.10;99.90;;;;;;5087924;28;20024;-52
2023/02/08 06:51:05;;;;;;;86.15;41.35;;;-3.20;99.90;;;;;;5074671;28;20032;-55
2023/02/08 06:53:52;;;;;;;84.30;43.42;;;-3.20;99.90;;;;;;5055896;28;20041;-56
2023/02/08 06:56:38;;;;;;;85.63;40.83;;;-3.10;99.90;;;;;;5071446;28;20562;-54
2023/02/08 06:59:24;;;;;;;93.88;43.75;;;-3.10;99.90;;;;;;5073786;28;20040;-57
2023/02/08 07:02:15;;;;;;;98.05;43.88;;;-3.00;99.90;;;;;;5082274;28;20522;-55
2023/02/08 07:05:01;;;;;;;88.15;41.78;;;-3.20;99.90;;;;;;5069759;28;20489;-54
2023/02/08 07:07:50;;;;;;;117.88;53.90;;;-3.10;99.90;;;;;;5088095;28;20488;-52
2023/02/08 07:10:40;;;;;;;94.70;43.78;;;-3.10;99.90;;;;;;5074120;28;20411;-55
2023/02/08 07:13:26;;;;;;;92.90;42.40;;;-3.10;99.90;;;;;;5069526;28;20040;-53
2023/02/08 07:16:12;;;;;;;87.88;42.10;;;-3.10;99.90;;;;;;5069806;28;20024;-54
2023/02/08 07:18:58;;;;;;;85.25;41.75;;;-3.10;99.90;;;;;;5068802;28;20078;-53
2023/02/08 07:21:44;;;;;;;91.90;43.55;;;-3.20;99.90;;;;;;5078268;28;20437;-51
2023/02/08 07:24:30;;;;;;;84.88;40.70;;;-3.20;99.90;;;;;;5089662;28;20177;-55
2023/02/08 07:27:16;;;;;;;88.90;43.28;;;-3.20;99.90;;;;;;5061450;28;20397;-52
2023/02/08 07:30:02;;;;;;;88.75;41.22;;;-3.10;99.90;;;;;;5069907;28;20047;-56
2023/02/08 07:32:48;;;;;;;85.50;43.97;;;-3.10;99.90;;;;;;5089043;28;20077;-51
2023/02/08 07:35:34;;;;;;;81.25;40.50;;;-3.00;99.90;;;;;;5085915;28;20023;-50
2023/02/08 07:38:20;;;;;;;80.90;42.13;;;-3.00;99.90;;;;;;5088075;28;20119;-53
2023/02/08 07:41:09;;;;;;;96.70;44.70;;;-3.00;99.90;;;;;;5068914;28;20500;-54
2023/02/08 07:43:55;;;;;;;97.53;45.83;;;-2.80;99.90;;;;;;5070151;28;20396;-55
2023/02/08 07:46:41;;;;;;;83.00;42.47;;;-2.90;99.90;;;;;;5084155;28;20027;-55
2023/02/08 07:49:27;;;;;;;102.15;47.58;;;-2.80;99.90;;;;;;5069638;28;20448;-55
2023/02/08 07:52:13;;;;;;;76.65;39.15;;;-2.80;99.90;;;;;;5073830;28;20023;-57
2023/02/08 07:54:59;;;;;;;79.82;41.78;;;-2.80;99.90;;;;;;5071773;28;20025;-52
2023/02/08 07:57:48;;;;;;;81.28;40.17;;;-2.80;99.90;;;;;;5078999;28;20073;-53
2023/02/08 08:00:34;;;;;;;81.90;40.80;;;-2.70;99.90;;;;;;5083108;28;20039;-56
2023/02/08 08:03:21;;;;;;;75.13;39.40;;;-2.60;99.90;;;;;;5080479;28;20500;-58
2023/02/08 08:06:07;;;;;;;81.65;40.22;;;-2.60;99.90;;;;;;5082190;28;20400;-56
2023/02/08 08:08:53;;;;;;;83.82;41.15;;;-2.60;99.90;;;;;;5081722;28;20376;-56
2023/02/08 08:11:39;;;;;;;80.10;39.85;;;-2.50;99.90;;;;;;5073643;28;20024;-56
2023/02/08 08:14:25;;;;;;;77.85;39.00;;;-2.40;99.90;;;;;;5081698;28;20032;-54
2023/02/08 08:17:11;;;;;;;71.88;39.15;;;-2.30;99.90;;;;;;5065694;28;20102;-56
2023/02/08 08:19:56;;;;;;;79.07;40.92;;;-2.20;99.90;;;;;;5090056;28;20101;-56
2023/02/08 08:22:42;;;;;;;72.63;38.53;;;-2.20;99.90;;;;;;5111741;28;20035;-55
2023/02/08 08:25:28;;;;;;;80.15;41.22;;;-2.30;99.90;;;;;;5111957;28;20081;-57
2023/02/08 08:28:15;;;;;;;84.20;40.72;;;-2.30;99.90;;;;;;5096089;28;20028;-56
2023/02/08 08:31:01;;;;;;;79.93;43.35;;;-2.30;99.90;;;;;;5091590;28;20048;-55
2023/02/08 08:33:47;;;;;;;78.10;39.70;;;-2.30;99.90;;;;;;5081435;28;20457;-56
2023/02/08 08:36:33;;;;;;;79.35;40.65;;;-2.20;99.90;;;;;;5095986;28;20028;-52
2023/02/08 08:39:21;;;;;;;74.78;39.33;;;-2.20;99.90;;;;;;5076346;28;20063;-56
2023/02/08 08:42:07;;;;;;;82.78;39.55;;;-2.10;99.90;;;;;;5091709;28;20028;-54
2023/02/08 08:44:53;;;;;;;118.05;56.80;;;-2.00;99.90;;;;;;5089951;28;20035;-54
2023/02/08 08:47:39;;;;;;;111.65;53.85;;;-2.10;99.90;;;;;;5088612;28;20673;-54
2023/02/08 08:50:25;;;;;;;100.57;51.28;;;-2.10;99.90;;;;;;5086324;28;20044;-57
2023/02/08 08:53:12;;;;;;;86.82;44.38;;;-2.00;99.90;;;;;;5089983;28;20101;-53
2023/02/08 08:55:57;;;;;;;75.18;39.03;;;-2.00;99.90;;;;;;5089156;28;20403;-55
2023/02/08 08:58:43;;;;;;;75.97;39.33;;;-1.90;99.90;;;;;;5077067;28;20024;-56
2023/02/08 09:01:29;;;;;;;71.63;37.83;;;-1.90;99.90;;;;;;5090088;28;20024;-53
2023/02/08 09:04:15;;;;;;;80.75;40.97;;;-1.80;99.90;;;;;;5088828;28;20035;-55
2023/02/08 09:07:01;;;;;;;81.40;41.60;;;-1.70;99.90;;;;;;5089662;28;20024;-58
2023/02/08 09:09:47;;;;;;;79.03;41.47;;;-1.70;99.90;;;;;;5090183;28;20434;-56
2023/02/08 09:12:33;;;;;;;77.95;40.65;;;-1.50;99.90;;;;;;5089055;28;20024;-56
2023/02/08 09:15:19;;;;;;;81.07;40.83;;;-1.50;99.90;;;;;;5089175;28;20051;-52
2023/02/08 09:18:05;;;;;;;73.20;39.17;;;-1.40;99.90;;;;;;5089765;28;20035;-56
2023/02/08 09:20:51;;;;;;;77.40;42.97;;;-1.30;99.90;;;;;;5088135;28;20504;-57
2023/02/08 09:23:37;;;;;;;80.30;44.42;;;-1.30;99.90;;;;;;5088720;28;20506;-55
2023/02/08 09:26:25;;;;;;;76.03;40.97;;;-1.50;99.90;;;;;;5090816;28;20104;-56
2023/02/08 09:29:11;;;;;;;78.05;42.28;;;-1.80;99.90;;;;;;5078111;28;20021;-57
2023/02/08 09:31:57;;;;;;;82.63;43.08;;;-2.00;99.90;;;;;;5089642;28;20036;-56
2023/02/08 09:34:43;;;;;;;77.45;40.63;;;-2.00;99.90;;;;;;5088332;28;20507;-56
2023/02/08 09:37:29;;;;;;;79.63;41.17;;;-1.90;99.90;;;;;;5074507;28;20432;-50
2023/02/08 09:40:33;;;;;;;83.38;43.03;;;-1.80;99.90;;;;;;5088275;28;20024;-54
2023/02/08 09:43:42;;;;;;;77.22;41.17;;;-1.60;99.90;;;;;;5087325;28;20062;-56
2023/02/08 09:46:34;;;;;;;79.93;43.58;;;-1.40;99.90;;;;;;5088472;28;20032;-55
2023/02/08 09:49:27;;;;;;;72.60;40.40;;;-1.40;99.90;;;;;;5081373;28;20058;-54
2023/02/08 09:52:17;;;;;;;73.10;40.47;;;-1.20;99.90;;;;;;5084648;28;20444;-49
2023/02/08 09:55:28;;;;;;;75.10;39.85;;;-1.30;99.90;;;;;;5071244;28;20031;-51
2023/02/08 09:58:37;;;;;;;72.50;39.88;;;-1.20;99.90;;;;;;5077890;28;20032;-55
2023/02/08 10:01:32;;;;;;;67.57;38.85;;;-1.10;99.90;;;;;;5062682;28;20031;-50
2023/02/08 10:04:29;;;;;;;73.35;40.28;;;-1.20;99.90;;;;;;5085729;28;20049;-50
2023/02/08 10:07:15;;;;;;;76.20;40.35;;;-1.20;99.90;;;;;;5069149;28;20029;-50
2023/02/08 10:10:11;;;;;;;70.43;39.67;;;-1.00;99.90;;;;;;5082352;28;20063;-51
2023/02/08 10:13:12;;;;;;;71.43;39.25;;;-0.90;99.90;;;;;;5110339;28;20049;-55
2023/02/08 10:16:08;;;;;;;72.55;41.47;;;-0.80;99.90;;;;;;5091316;28;20035;-51
2023/02/08 10:19:15;;;;;;;71.05;40.33;;;-0.70;99.90;;;;;;5097310;28;20031;-49
2023/02/08 10:22:14;;;;;;;76.35;41.42;;;-0.70;99.90;;;;;;5109276;28;20063;-55
2023/02/08 10:25:29;;;;;;;76.93;43.13;;;-0.80;99.90;;;;;;5088343;28;20567;-51
2023/02/08 10:28:43;;;;;;;90.78;48.55;;;-0.90;99.90;;;;;;5071371;28;20040;-50
2023/02/08 10:31:58;;;;;;;90.88;47.45;;;-1.30;99.90;;;;;;5092832;28;20441;-50
2023/02/08 10:35:06;;;;;;;99.13;49.40;;;-1.50;99.90;;;;;;5106637;28;20103;-56
2023/02/08 10:37:55;;;;;;;97.53;48.13;;;-1.60;99.90;;;;;;5095647;28;20027;-54
2023/02/08 10:40:41;;;;;;;95.63;48.47;;;-1.60;99.90;;;;;;5080517;28;20028;-52
2023/02/08 10:43:39;;;;;;;98.57;47.83;;;-1.40;99.90;;;;;;5070205;28;20021;-52
2023/02/08 10:46:34;;;;;;;90.50;47.95;;;-1.20;99.90;;;;;;5086963;28;20023;-51
2023/02/08 10:49:37;;;;;;;95.47;48.58;;;-1.00;99.90;;;;;;5089094;28;20044;-54
2023/02/08 10:52:23;;;;;;;92.75;47.58;;;-0.80;99.90;;;;;;5090184;28;20111;-53
2023/02/08 10:55:19;;;;;;;89.90;46.03;;;-1.00;99.90;;;;;;5069884;28;20053;-53
2023/02/08 10:58:06;;;;;;;89.63;47.95;;;-0.90;99.90;;;;;;5082805;28;20369;-55
2023/02/08 11:00:53;;;;;;;92.35;46.90;;;-0.90;99.90;;;;;;5072246;28;20037;-52
2023/02/08 11:04:03;;;;;;;79.50;44.80;;;-1.00;99.90;;;;;;5085118;28;20055;-53
2023/02/08 11:06:50;;;;;;;81.85;44.05;;;-1.00;99.90;;;;;;5070682;28;20024;-54
2023/02/08 11:09:36;;;;;;;80.22;41.80;;;-0.60;99.90;;;;;;5089359;28;20029;-53
2023/02/08 11:12:22;;;;;;;79.18;43.30;;;-0.40;99.90;;;;;;5061944;28;20454;-49
2023/02/08 11:15:36;;;;;;;85.22;44.97;;;-0.40;99.90;;;;;;5076916;28;20048;-53
2023/02/08 11:18:32;;;;;;;76.75;43.88;;;-0.10;99.90;;;;;;5083701;28;20032;-50
2023/02/08 11:21:28;;;;;;;76.78;41.38;;;-0.20;99.90;;;;;;5070666;28;20052;-51
2023/02/08 11:24:14;;;;;;;70.13;42.53;;;-0.30;99.90;;;;;;5057515;28;20027;-48
2023/02/08 11:27:01;;;;;;;85.30;41.72;;;-0.30;99.90;;;;;;5074070;28;20085;-56
2023/02/08 11:30:13;;;;;;;74.97;41.80;;;-0.30;99.90;;;;;;5085045;28;20596;-53
2023/02/08 11:33:18;;;;;;;83.32;43.50;;;-0.10;99.90;;;;;;5086095;28;20024;-54
2023/02/08 11:36:07;;;;;;;89.10;42.88;;;-0.20;99.90;;;;;;5084097;28;20021;-52
2023/02/08 11:38:53;;;;;;;80.10;43.22;;;-0.10;99.90;;;;;;5072638;28;20111;-50
2023/02/08 11:41:43;;;;;;;74.55;43.92;;;0.00;99.90;;;;;;5072530;28;20033;-50
2023/02/08 11:44:33;;;;;;;75.57;42.20;;;-0.20;99.90;;;;;;5082750;28;20025;-50
2023/02/08 11:47:25;;;;;;;78.90;44.10;;;0.00;99.90;;;;;;5072010;28;20408;-51
2023/02/08 11:50:31;;;;;;;78.43;44.92;;;0.00;99.90;;;;;;5087314;28;20081;-51
2023/02/08 11:53:22;;;;;;;;;;;0.10;99.90;;;;;;5075304;28;20418;-51
2023/02/08 11:56:21;;;;;;;75.95;44.25;;;0.10;99.90;;;;;;5071869;28;19908;-53
2023/02/08 11:59:20;;;;;;;82.93;45.20;;;0.10;99.90;;;;;;5058738;28;20052;-58
2023/02/08 12:02:24;;;;;;;83.95;46.72;;;0.20;99.90;;;;;;5059405;28;20477;-57
2023/02/08 12:05:20;;;;;;;84.72;44.15;;;0.20;99.90;;;;;;5075298;28;20104;-51
2023/02/08 12:08:27;;;;;;;75.82;44.95;;;0.40;99.90;;;;;;5077668;28;20028;-52
2023/02/08 12:11:32;;;;;;;78.93;45.35;;;0.40;99.90;;;;;;5087550;28;20029;-52
2023/02/08 12:14:30;;;;;;;82.57;48.13;;;0.40;99.90;;;;;;5058729;28;20032;-53
2023/02/08 12:17:43;;;;;;;83.40;46.33;;;0.30;99.90;;;;;;5076333;28;20040;-52
2023/02/08 12:21:03;;;;;;;80.85;46.30;;;0.20;99.90;;;;;;5075365;28;20019;-54
2023/02/08 12:23:55;;;;;;;87.63;47.22;;;0.30;99.90;;;;;;5092122;28;20099;-56
2023/02/08 12:27:08;;;;;;;80.80;45.60;;;0.20;99.90;;;;;;5071634;28;20480;-56
2023/02/08 12:29:59;;;;;;;87.75;47.60;;;0.40;99.90;;;;;;5073175;28;20505;-51
2023/02/08 12:33:44;;;;;;;80.97;47.05;;;0.50;99.90;;;;;;5070806;28;20024;-52
2023/02/08 12:36:38;;;;;;;82.97;45.75;;;0.60;99.90;;;;;;5007339;28;20030;-51
2023/02/08 12:43:07;;;;;;;84.20;46.08;;;0.90;99.90;;;;;;5082272;28;20361;-55
2023/02/08 12:46:01;;;;;;;81.03;44.45;;;1.00;99.90;;;;;;5079294;28;20113;-54
2023/02/08 12:48:58;;;;;;;87.47;45.58;;;1.10;99.90;;;;;;5073288;28;20032;-50
2023/02/08 12:51:53;;;;;;;95.35;49.17;;;1.20;99.90;;;;;;5070010;28;20028;-51
2023/02/08 12:55:02;;;;;;;;;;;1.30;99.90;;;;;;5085440;28;20051;-54
2023/02/08 12:57:56;;;;;;;81.55;41.70;;;1.40;99.90;;;;;;5090852;28;19958;-53
2023/02/08 13:00:44;;;;;;;97.45;46.08;;;1.50;99.90;;;;;;5088891;28;20119;-52
2023/02/08 13:03:37;;;;;;;77.72;43.60;;;1.60;99.90;;;;;;5085280;28;20024;-52
2023/02/08 13:06:29;;;;;;;72.00;43.78;;;1.80;99.90;;;;;;5055635;28;20020;-53
2023/02/08 13:09:55;;;;;;;74.03;42.63;;;2.00;99.90;;;;;;5059382;28;20067;-51
2023/02/08 13:12:46;;;;;;;83.85;43.80;;;2.10;99.90;;;;;;5048540;28;20045;-54
2023/02/08 13:15:41;;;;;;;94.32;43.90;;;2.20;99.90;;;;;;5071270;28;20523;-52
2023/02/08 13:18:32;;;;;;;79.30;44.10;;;2.20;99.90;;;;;;5057431;28;20032;-55
2023/02/08 13:21:29;;;;;;;72.80;42.08;;;2.40;99.90;;;;;;5070369;28;20615;-51
2023/02/08 13:24:24;;;;;;;61.80;38.60;;;2.40;99.90;;;;;;5076289;28;20052;-55
2023/02/08 13:27:18;;;;;;;62.57;37.23;;;2.50;99.90;;;;;;5072847;28;20036;-55
2023/02/08 13:30:05;;;;;;;57.88;35.90;;;2.50;99.90;;;;;;5078471;28;20025;-55
2023/02/08 13:32:52;;;;;;;60.58;36.83;;;2.70;99.90;;;;;;5070409;28;20075;-51
2023/02/08 13:35:39;;;;;;;61.85;36.38;;;2.80;99.90;;;;;;5083632;28;20039;-57
2023/02/08 13:38:29;;;;;;;54.03;35.50;;;2.90;99.90;;;;;;5092517;28;20036;-55
2023/02/08 13:41:21;;;;;;;58.63;36.42;;;3.20;99.90;;;;;;5107044;28;20063;-54
2023/02/08 13:44:18;;;;;;;62.92;37.80;;;3.30;99.90;;;;;;5113218;28;20095;-55
2023/02/08 13:47:06;;;;;;;62.83;38.40;;;3.40;99.90;;;;;;5081807;28;20016;-56
2023/02/08 13:49:55;;;;;;;58.92;37.80;;;3.50;99.90;;;;;;5094935;28;20036;-56
2023/02/08 13:52:47;;;;;;;58.72;36.28;;;3.70;99.90;;;;;;5094487;28;20020;-54
2023/02/08 13:55:41;;;;;;;54.38;33.97;;;3.80;99.90;;;;;;5095895;28;20031;-55
2023/02/08 13:58:37;;;;;;;51.22;32.92;;;3.70;99.90;;;;;;5081890;28;20369;-59
2023/02/08 14:01:27;;;;;;;47.22;32.72;;;3.70;99.90;;;;;;5085399;28;20062;-56
2023/02/08 14:04:14;;;;;;;48.90;30.85;;;3.50;99.70;;;;;;5095732;28;20028;-56
2023/02/08 14:07:23;;;;;;;44.75;30.40;;;3.60;99.90;;;;;;5078437;28;20032;-58
2023/02/08 14:10:40;;;;;;;41.35;27.45;;;3.90;99.70;;;;;;5076226;28;20112;-56
2023/02/08 14:13:53;;;;;;;45.13;30.40;;;4.40;99.20;;;;;;5091153;28;20028;-58
2023/02/08 14:16:44;;;;;;;45.13;29.35;;;4.70;98.10;;;;;;5058665;28;20033;-56
2023/02/08 14:19:39;;;;;;;41.92;28.80;;;4.90;97.30;;;;;;5076343;28;20040;-56
2023/02/08 14:22:30;;;;;;;36.17;26.80;;;5.20;96.80;;;;;;5079881;28;20050;-58
2023/02/08 14:25:17;;;;;;;38.35;27.05;;;5.40;96.00;;;;;;5081530;28;20021;-57
2023/02/08 14:28:04;;;;;;;40.35;28.20;;;5.70;95.70;;;;;;5093053;28;20025;-59
2023/02/08 14:30:53;;;;;;;42.42;29.13;;;5.80;94.50;;;;;;5081759;28;20324;-59
2023/02/08 14:33:42;;;;;;;39.47;29.23;;;5.90;94.80;;;;;;5114870;28;20016;-63
2023/02/08 14:36:38;;;;;;;35.70;27.80;;;6.30;94.60;;;;;;5103042;28;20366;-60
2023/02/08 14:39:32;;;;;;;44.58;28.35;;;6.90;93.60;;;;;;5064194;28;20029;-59
2023/02/08 14:42:57;;;;;;;40.97;29.55;;;7.50;92.30;;;;;;5071169;28;20435;-61